Time;durP1;ratioP1;P1;durP2;ratioP2;P2;SDS_P1;SDS_P2;PMS_P1;PMS_P2;Temp;Humidity;BMP_temperature;BMP_pressure;BME280_temperature;BME280_humidity;BME280_pressure;Samples;Min_cycle;Max_cycle;Signal;HPM_P1;HPM_P2
2023/04/13 00:01:24;;;;;;;39.10;19.65;;;;;;;5.48;75.95;99253.02;1794829;78;25564;-50
2023/04/13 00:03:51;;;;;;;32.48;17.95;;;;;;;5.43;76.14;99244.55;1768655;80;27474;-48
2023/04/13 00:06:18;;;;;;;33.73;17.48;;;;;;;5.40;76.03;99249.16;1773523;80;25641;-49
2023/04/13 00:08:45;;;;;;;62.40;56.23;;;;;;;5.36;76.16;99236.64;1774606;80;25574;-48
2023/04/13 00:11:13;;;;;;;52.73;47.27;;;;;;;5.35;76.47;99234.52;1772279;79;25509;-48
2023/04/13 00:13:46;;;;;;;39.38;18.25;;;;;;;5.35;76.90;99225.13;1771193;81;25591;-48
2023/04/13 00:16:12;;;;;;;31.97;17.77;;;;;;;5.33;76.73;99228.67;1769665;80;29743;-48
2023/04/13 00:18:39;;;;;;;37.03;17.60;;;;;;;5.31;76.31;99221.48;1760273;80;25623;-48
2023/04/13 00:21:07;;;;;;;96.78;88.50;;;;;;;5.29;75.92;99230.34;1774908;80;25615;-48
2023/04/13 00:23:38;;;;;;;95.75;88.00;;;;;;;5.24;75.66;99227.23;1774115;80;25607;-48
2023/04/13 00:26:06;;;;;;;35.35;18.70;;;;;;;5.22;76.26;99224.04;1769506;80;25584;-49
2023/04/13 00:28:32;;;;;;;33.65;18.67;;;;;;;5.21;75.84;99231.04;1772468;80;28218;-48
2023/04/13 00:30:58;;;;;;;30.37;17.32;;;;;;;5.18;76.06;99240.48;1774957;80;25438;-48
2023/04/13 00:33:24;;;;;;;96.47;88.15;;;;;;;5.13;76.16;99232.55;1761482;80;25446;-48
2023/04/13 00:35:51;;;;;;;97.62;89.47;;;;;;;5.11;75.73;99243.30;1775864;80;25576;-48
2023/04/13 00:38:17;;;;;;;97.92;89.45;;;;;;;5.06;76.10;99234.84;1776383;80;25603;-48
2023/04/13 00:40:45;;;;;;;95.57;87.33;;;;;;;5.02;76.30;99227.94;1778740;80;29728;-48
2023/04/13 00:43:11;;;;;;;98.37;89.85;;;;;;;4.99;75.89;99229.08;1763512;80;25571;-48
2023/04/13 00:45:38;;;;;;;95.20;87.27;;;;;;;4.97;76.26;99237.94;1781775;80;25543;-48
2023/04/13 00:48:11;;;;;;;33.75;17.40;;;;;;;4.91;76.70;99241.27;1781810;79;25609;-49
2023/04/13 00:50:40;;;;;;;34.48;16.97;;;;;;;4.88;76.42;99240.52;1780860;80;25381;-49
2023/04/13 00:53:11;;;;;;;32.58;17.52;;;;;;;4.83;75.99;99244.08;1775117;79;27439;-48
2023/04/13 00:55:41;;;;;;;34.20;16.80;;;;;;;4.87;76.42;99255.03;1774467;80;25607;-48
2023/04/13 00:58:06;;;;;;;42.17;17.80;;;;;;;4.73;76.53;99238.91;1772312;80;25555;-49
2023/04/13 01:00:33;;;;;;;38.67;17.67;;;;;;;4.66;77.82;99229.91;1776048;80;25632;-48
2023/04/13 01:03:00;;;;;;;36.00;16.93;;;;;;;4.66;77.82;99229.13;1782050;78;32434;-52
2023/04/13 01:05:51;;;;;;;34.73;17.92;;;;;;;4.60;77.56;99222.30;1782844;80;27421;-52
2023/04/13 01:08:29;;;;;;;26.70;15.08;;;;;;;4.57;77.50;99222.87;1784892;79;25458;-53
2023/04/13 01:11:35;;;;;;;30.92;15.78;;;;;;;4.52;77.60;99228.32;1784332;79;25368;-49
2023/04/13 01:14:16;;;;;;;27.75;15.88;;;;;;;4.47;77.31;99223.28;1784828;80;26341;-51
2023/04/13 01:16:48;;;;;;;32.30;16.60;;;;;;;4.47;77.66;99222.50;1785310;79;25763;-50
2023/04/13 01:19:32;;;;;;;32.13;16.52;;;;;;;4.46;78.08;99227.59;1785331;79;27578;-48
2023/04/13 01:22:01;;;;;;;33.25;15.95;;;;;;;4.43;78.25;99226.31;1771845;80;25589;-49
2023/04/13 01:24:54;;;;;;;34.03;17.20;;;;;;;4.43;79.02;99227.66;1785029;80;25605;-50
2023/04/13 01:27:46;;;;;;;28.20;15.75;;;;;;;4.40;78.67;99226.89;1784828;80;25501;-50
2023/04/13 01:30:21;;;;;;;32.38;15.98;;;;;;;4.36;78.33;99229.92;1777577;80;25519;-48
2023/04/13 01:32:53;;;;;;;28.92;15.28;;;;;;;4.29;78.42;99224.13;1784882;80;27661;-48
2023/04/13 01:35:24;;;;;;;34.18;16.82;;;;;;;4.27;78.64;99223.63;1784745;80;27411;-48
2023/04/13 01:37:52;;;;;;;31.68;16.93;;;;;;;4.24;78.78;99213.50;1784941;79;25558;-49
2023/04/13 01:40:21;;;;;;;34.38;19.07;;;;;;;4.21;78.69;99217.58;1771474;80;25494;-52
2023/04/13 01:42:48;;;;;;;33.85;24.70;;;;;;;4.15;78.52;99215.27;1785016;79;25443;-52
2023/04/13 01:45:25;;;;;;;77.87;71.10;;;;;;;4.11;78.29;99217.73;1784877;79;27518;-49
2023/04/13 01:48:21;;;;;;;85.00;76.90;;;;;;;4.09;78.15;99216.69;1784773;79;27459;-51
2023/04/13 01:50:55;;;;;;;51.37;46.28;;;;;;;4.07;78.20;99217.53;1784846;79;25600;-49
2023/04/13 01:53:30;;;;;;;35.10;24.98;;;;;;;4.04;78.42;99216.77;1784840;80;25537;-49
2023/04/13 01:55:59;;;;;;;35.23;23.55;;;;;;;4.00;78.19;99207.75;1784870;79;25447;-48
2023/04/13 01:58:28;;;;;;;32.25;18.15;;;;;;;3.98;78.74;99211.23;1784785;79;27586;-48
2023/04/13 02:00:55;;;;;;;88.20;80.25;;;;;;;3.98;78.75;99205.88;1784885;80;25610;-50
2023/04/13 02:03:21;;;;;;;96.22;87.65;;;;;;;3.95;78.93;99203.81;1784736;79;25565;-48
2023/04/13 02:05:49;;;;;;;44.00;38.67;;;;;;;3.91;78.35;99204.12;1784773;79;25596;-47
2023/04/13 02:08:19;;;;;;;34.40;16.87;;;;;;;3.88;78.40;99203.36;1784872;80;25186;-47
2023/04/13 02:10:46;;;;;;;37.67;21.12;;;;;;;3.83;78.70;99204.78;1784868;79;28453;-47
2023/04/13 02:13:12;;;;;;;43.98;28.25;;;;;;;3.77;78.73;99203.28;1784701;80;25746;-49
2023/04/13 02:15:41;;;;;;;41.00;28.25;;;;;;;3.74;78.86;99207.31;1784786;80;25447;-48
2023/04/13 02:18:09;;;;;;;34.73;26.77;;;;;;;3.68;78.64;99207.94;1784955;79;25613;-49
2023/04/13 02:20:43;;;;;;;32.53;19.80;;;;;;;3.64;78.41;99214.14;1784818;80;25356;-48
2023/04/13 02:23:14;;;;;;;38.20;25.88;;;;;;;3.61;78.40;99216.06;1784879;79;25825;-48
2023/04/13 02:25:45;;;;;;;37.88;25.90;;;;;;;3.60;80.10;99215.82;1784788;80;25444;-47
2023/04/13 02:28:12;;;;;;;36.85;22.07;;;;;;;3.59;80.12;99211.55;1784782;79;25404;-47
2023/04/13 02:30:38;;;;;;;42.93;29.92;;;;;;;3.55;80.04;99217.47;1784733;80;25634;-47
2023/04/13 02:33:08;;;;;;;36.83;24.27;;;;;;;3.52;79.90;99211.91;1784836;80;25539;-48
2023/04/13 02:35:37;;;;;;;40.78;28.90;;;;;;;3.50;79.68;99210.06;1784889;79;27685;-49
2023/04/13 02:38:05;;;;;;;18.67;10.53;;;;;;;3.47;79.72;99206.07;1784811;79;25706;-48
2023/04/13 02:40:32;;;;;;;;;;;;;;;3.44;79.76;99213.36;1787494;79;25587;-48
2023/04/13 02:42:58;;;;;;;70.57;63.92;;;;;;;3.43;79.85;99214.98;1784752;80;35228;-48
2023/04/13 02:45:28;;;;;;;76.45;69.45;;;;;;;3.40;79.75;99218.22;1784823;80;25540;-48
2023/04/13 02:47:54;;;;;;;70.90;64.05;;;;;;;3.38;79.82;99211.82;1784923;80;27535;-49
2023/04/13 02:50:20;;;;;;;92.95;84.65;;;;;;;3.36;79.88;99218.00;1771587;80;25438;-47
2023/04/13 02:52:46;;;;;;;94.42;86.53;;;;;;;3.35;80.16;99223.08;1784980;80;25432;-48
2023/04/13 02:55:12;;;;;;;80.17;72.60;;;;;;;3.32;80.05;99224.47;1784904;79;25578;-47
2023/04/13 02:57:41;;;;;;;66.45;60.40;;;;;;;3.28;79.99;99226.65;1784992;80;25392;-48
2023/04/13 03:00:09;;;;;;;96.80;88.27;;;;;;;3.26;80.10;99232.28;1784820;79;27491;-48
2023/04/13 03:02:37;;;;;;;87.50;79.37;;;;;;;3.24;80.38;99227.77;1792703;79;25428;-49
2023/04/13 03:05:06;;;;;;;96.40;87.85;;;;;;;3.22;80.50;99236.62;1781877;79;25491;-49
2023/04/13 03:07:34;;;;;;;44.63;32.17;;;;;;;3.19;80.39;99233.17;1806722;79;25640;-49
2023/04/13 03:10:04;;;;;;;97.42;88.85;;;;;;;3.13;80.11;99235.64;1807287;79;25400;-48
2023/04/13 03:12:32;;;;;;;92.15;83.75;;;;;;;3.08;80.03;99229.83;1784844;79;27561;-50
2023/04/13 03:15:01;;;;;;;93.82;85.75;;;;;;;3.06;80.02;99225.84;1807036;79;25425;-48
2023/04/13 03:17:31;;;;;;;95.97;87.60;;;;;;;3.02;79.82;99226.16;1807295;79;25408;-51
2023/04/13 03:19:59;;;;;;;78.50;71.65;;;;;;;2.97;79.52;99232.35;1807146;79;25538;-52
2023/04/13 03:22:29;;;;;;;94.80;86.72;;;;;;;2.94;79.73;99231.03;1807157;79;25660;-52
2023/04/13 03:24:54;;;;;;;97.53;88.67;;;;;;;2.91;79.96;99227.62;1806955;79;28368;-51
2023/04/13 03:27:21;;;;;;;96.85;88.40;;;;;;;2.88;79.94;99229.52;1807017;79;25536;-52
2023/04/13 03:29:49;;;;;;;96.30;87.85;;;;;;;2.85;79.69;99238.09;1807150;79;25523;-51
2023/04/13 03:32:15;;;;;;;78.33;71.60;;;;;;;2.80;80.12;99244.81;1807043;78;25538;-52
2023/04/13 03:34:42;;;;;;;96.37;88.07;;;;;;;2.79;80.29;99260.05;1807104;79;25397;-50
2023/04/13 03:37:11;;;;;;;89.45;81.45;;;;;;;2.74;80.57;99252.09;1807069;79;27496;-51
2023/04/13 03:39:38;;;;;;;83.78;75.90;;;;;;;2.73;80.28;99258.50;1784477;79;25660;-49
2023/04/13 03:42:06;;;;;;;90.83;82.62;;;;;;;2.72;80.41;99261.45;1807060;79;25575;-51
2023/04/13 03:44:33;;;;;;;97.12;88.58;;;;;;;2.70;80.94;99264.95;1784570;79;25471;-50
2023/04/13 03:47:00;;;;;;;100.78;91.60;;;;;;;2.68;81.63;99265.22;1807163;79;25697;-48
2023/04/13 03:49:26;;;;;;;98.80;89.90;;;;;;;2.69;81.65;99264.67;1807218;79;27565;-51
2023/04/13 03:51:53;;;;;;;97.72;88.92;;;;;;;2.68;81.43;99273.23;1784701;79;25619;-48
2023/04/13 03:54:19;;;;;;;96.22;87.70;;;;;;;2.70;81.45;99276.96;1807175;79;25538;-48
2023/04/13 03:56:45;;;;;;;96.72;88.00;;;;;;;2.72;81.86;99280.14;1784663;79;25516;-49
2023/04/13 03:59:11;;;;;;;96.32;87.90;;;;;;;2.73;82.36;99270.52;1807085;77;25588;-50
2023/04/13 04:01:39;;;;;;;98.52;89.52;;;;;;;2.76;82.79;99274.52;1807041;77;27562;-48
2023/04/13 04:04:06;;;;;;;95.25;87.20;;;;;;;2.80;82.89;99281.66;1806825;79;25453;-49
2023/04/13 04:06:33;;;;;;;94.17;86.08;;;;;;;2.87;83.00;99293.34;1807071;79;25717;-48
2023/04/13 04:08:59;;;;;;;75.15;68.00;;;;;;;2.92;83.06;99293.84;1806995;79;27731;-48
2023/04/13 04:11:26;;;;;;;58.90;52.48;;;;;;;2.98;83.07;99299.41;1807069;79;25388;-48
2023/04/13 04:13:54;;;;;;;94.52;85.85;;;;;;;3.03;83.08;99296.69;1784209;79;27581;-48
2023/04/13 04:16:20;;;;;;;92.50;84.60;;;;;;;3.08;83.12;99301.97;1806991;79;25922;-48
2023/04/13 04:18:46;;;;;;;94.20;86.10;;;;;;;3.14;83.03;99298.70;1784634;79;25581;-48
2023/04/13 04:21:14;;;;;;;98.45;89.17;;;;;;;3.14;83.02;99302.16;1807000;77;25540;-49
2023/04/13 04:23:40;;;;;;;95.05;86.47;;;;;;;3.18;83.21;99301.05;1807013;79;25396;-48
2023/04/13 04:26:07;;;;;;;96.67;87.90;;;;;;;3.23;83.75;99302.33;1807028;79;29675;-48
2023/04/13 04:28:37;;;;;;;98.52;89.28;;;;;;;3.32;84.08;99309.18;1806938;79;25976;-50
2023/04/13 04:31:03;;;;;;;69.62;63.10;;;;;;;3.40;84.15;99307.77;1806911;79;25380;-48
2023/04/13 04:33:30;;;;;;;99.42;89.83;;;;;;;3.49;85.21;99312.22;1784279;79;25597;-50
2023/04/13 04:35:57;;;;;;;97.62;88.72;;;;;;;3.57;85.54;99309.98;1807090;79;25470;-50
2023/04/13 04:38:24;;;;;;;99.50;90.47;;;;;;;3.65;85.79;99315.48;1807026;79;27560;-48
2023/04/13 04:40:56;;;;;;;99.92;90.75;;;;;;;3.75;86.02;99313.23;1806902;79;25479;-51
2023/04/13 04:43:19;;;;;;;68.42;62.20;;;;;;;3.84;86.28;99314.72;1806651;79;25255;-48
2023/04/13 04:45:45;;;;;;;99.28;89.85;;;;;;;3.93;86.41;99317.00;1807108;79;33686;-48
2023/04/13 04:48:14;;;;;;;98.87;89.30;;;;;;;3.98;86.35;99322.83;1807185;79;25588;-48
2023/04/13 04:50:44;;;;;;;102.60;92.80;;;;;;;4.06;86.58;99319.52;1806993;79;27537;-48
2023/04/13 04:53:08;;;;;;;101.27;91.47;;;;;;;4.15;86.75;99320.99;1805251;79;25554;-49
2023/04/13 04:55:34;;;;;;;102.38;92.45;;;;;;;4.23;86.78;99321.68;1807044;79;25542;-49
2023/04/13 04:58:01;;;;;;;51.73;34.20;;;;;;;4.31;86.93;99321.03;1807051;79;25490;-48
2023/04/13 05:00:29;;;;;;;51.18;24.25;;;;;;;4.40;87.05;99326.52;1807037;79;25354;-51
2023/04/13 05:02:59;;;;;;;48.60;23.98;;;;;;;4.48;87.25;99321.30;1796807;79;27731;-50
2023/04/13 05:05:25;;;;;;;54.38;23.57;;;;;;;4.63;87.79;99328.82;1763136;80;30917;-49
2023/04/13 05:07:51;;;;;;;47.53;25.20;;;;;;;4.80;88.38;99324.26;1778802;79;25526;-50
2023/04/13 05:10:18;;;;;;;46.13;23.45;;;;;;;4.95;88.58;99327.23;1772662;79;25585;-49
2023/04/13 05:12:46;;;;;;;49.25;24.23;;;;;;;5.10;88.78;99329.63;1758985;80;25639;-50
2023/04/13 05:15:14;;;;;;;48.15;22.73;;;;;;;5.24;88.57;99328.31;1779704;80;27633;-49
2023/04/13 05:17:40;;;;;;;50.15;24.27;;;;;;;5.40;88.91;99328.28;1779183;80;25621;-49
2023/04/13 05:20:09;;;;;;;47.43;24.23;;;;;;;5.54;88.70;99330.95;1779836;80;25578;-49
2023/04/13 05:22:36;;;;;;;52.70;27.50;;;;;;;5.67;88.40;99328.56;1775223;80;25485;-50
2023/04/13 05:25:05;;;;;;;49.30;24.30;;;;;;;5.79;88.25;99338.26;1773839;80;25615;-49
2023/04/13 05:27:31;;;;;;;46.40;24.07;;;;;;;5.87;87.60;99341.55;1767467;80;27429;-51
2023/04/13 05:29:58;;;;;;;82.62;40.48;;;;;;;5.97;87.99;99333.88;1771607;79;25633;-48
2023/04/13 05:32:25;;;;;;;50.08;24.67;;;;;;;6.10;88.33;99337.63;1777484;80;25524;-49
2023/04/13 05:34:51;;;;;;;54.42;24.75;;;;;;;6.24;88.64;99327.64;1776995;80;25598;-48
2023/04/13 05:37:17;;;;;;;49.42;25.75;;;;;;;6.40;88.64;99329.97;1779301;80;25381;-48
2023/04/13 05:39:44;;;;;;;55.45;26.50;;;;;;;6.53;88.64;99331.25;1778851;79;27577;-48
2023/04/13 05:42:10;;;;;;;65.55;33.23;;;;;;;6.71;89.02;99328.16;1778167;80;25716;-48
2023/04/13 05:44:36;;;;;;;51.60;27.20;;;;;;;6.89;89.24;99327.69;1759334;80;25452;-48
2023/04/13 05:47:03;;;;;;;51.58;24.87;;;;;;;7.08;89.17;99327.50;1779448;80;25524;-48
2023/04/13 05:49:29;;;;;;;48.68;23.67;;;;;;;7.27;88.96;99328.61;1759421;80;25641;-48
2023/04/13 05:51:56;;;;;;;48.95;24.30;;;;;;;7.43;88.49;99326.84;1779434;79;27523;-49
2023/04/13 05:54:22;;;;;;;48.42;23.75;;;;;;;7.59;88.44;99320.48;1779246;80;25552;-50
2023/04/13 05:56:48;;;;;;;50.25;25.15;;;;;;;7.76;88.40;99313.00;1759403;80;25599;-52
2023/04/13 05:59:15;;;;;;;43.98;23.42;;;;;;;7.93;88.26;99313.02;1779665;80;25510;-49
2023/04/13 06:01:41;;;;;;;48.10;23.90;;;;;;;8.12;87.88;99320.02;1771574;80;25663;-50
2023/04/13 06:04:08;;;;;;;43.98;23.70;;;;;;;8.34;87.86;99319.89;1794113;79;27537;-51
2023/04/13 06:06:34;;;;;;;62.58;53.35;;;;;;;8.54;87.47;99322.50;1806888;79;27368;-49
2023/04/13 06:09:01;;;;;;;101.50;92.27;;;;;;;8.74;86.16;99322.40;1807026;79;25440;-49
2023/04/13 06:11:27;;;;;;;103.62;94.65;;;;;;;8.87;85.01;99323.88;1806954;79;25546;-49
2023/04/13 06:13:53;;;;;;;101.87;92.70;;;;;;;9.01;84.56;99320.98;1807026;79;25435;-49
2023/04/13 06:16:22;;;;;;;100.22;91.50;;;;;;;9.17;84.12;99326.09;1784394;79;28069;-50
2023/04/13 06:18:48;;;;;;;98.82;90.28;;;;;;;9.31;83.51;99321.83;1807158;79;27299;-50
2023/04/13 06:21:14;;;;;;;81.65;73.97;;;;;;;9.45;83.17;99321.07;1807002;77;25388;-50
2023/04/13 06:23:41;;;;;;;62.83;56.20;;;;;;;9.66;82.90;99315.72;1807076;79;25571;-49
2023/04/13 06:26:07;;;;;;;100.85;92.40;;;;;;;9.98;82.59;99311.33;1807200;79;25384;-49
2023/04/13 06:28:34;;;;;;;100.33;91.75;;;;;;;10.22;81.37;99303.34;1784654;79;27540;-50
2023/04/13 06:31:01;;;;;;;98.78;90.35;;;;;;;10.50;81.01;99292.56;1807088;79;25403;-49
2023/04/13 06:33:27;;;;;;;96.45;87.45;;;;;;;10.81;80.51;99285.31;1807113;79;25561;-49
2023/04/13 06:35:53;;;;;;;98.27;89.65;;;;;;;11.11;79.32;99281.88;1807167;79;25558;-50
2023/04/13 06:38:19;;;;;;;95.12;87.20;;;;;;;11.48;79.15;99281.11;1807238;79;25618;-49
2023/04/13 06:40:46;;;;;;;36.45;32.55;;;;;;;11.85;77.35;99276.98;1807144;79;27464;-49
2023/04/13 06:43:12;;;;;;;31.55;18.32;;;;;;;12.24;77.14;99281.42;1807120;77;25613;-49
2023/04/13 06:45:38;;;;;;;25.30;15.65;;;;;;;12.61;75.66;99279.92;1784573;79;25646;-50
2023/04/13 06:48:06;;;;;;;26.23;15.45;;;;;;;12.97;74.87;99282.20;1807634;79;25439;-49
2023/04/13 06:50:36;;;;;;;28.15;15.55;;;;;;;13.34;74.40;99285.47;1807701;79;25526;-50
2023/04/13 06:53:16;;;;;;;28.57;16.12;;;;;;;13.74;72.95;99288.52;1807230;79;27453;-49
2023/04/13 06:55:53;;;;;;;28.83;16.42;;;;;;;14.14;72.37;99286.64;1806999;79;25643;-52
2023/04/13 08:47:48;;;;;;;15.35;12.28;;;;;;;24.28;39.17;99271.73;1779027;78;25552;-50
2023/04/13 08:50:16;;;;;;;15.75;11.75;;;;;;;25.06;38.35;99267.00;1700105;83;25599;-51
2023/04/13 08:52:43;;;;;;;19.07;13.50;;;;;;;25.55;37.93;99268.97;1720946;83;25408;-50
2023/04/13 08:55:09;;;;;;;18.80;13.40;;;;;;;26.00;36.82;99259.86;1720006;82;27518;-52
2023/04/13 08:57:37;;;;;;;14.65;12.28;;;;;;;26.30;36.61;99266.11;1719877;83;25561;-52
2023/04/13 09:00:11;;;;;;;13.78;11.93;;;;;;;26.73;36.31;99255.14;1720069;82;25564;-54
2023/04/13 09:02:37;;;;;;;12.88;10.48;;;;;;;27.13;35.40;99257.39;1719316;83;26040;-49
2023/04/13 09:05:14;;;;;;;15.28;11.43;;;;;;;27.27;34.14;99253.98;1719988;82;25547;-49
2023/04/13 09:07:35;;;;;;;15.28;11.20;;;;;;;27.13;33.50;99258.02;1718988;83;27521;-50
2023/04/13 09:10:04;;;;;;;13.38;11.05;;;;;;;27.18;33.38;99254.67;1697444;83;25496;-49
2023/04/13 09:12:31;;;;;;;14.68;11.28;;;;;;;27.30;33.67;99266.38;1719962;83;25404;-49
2023/04/13 09:14:58;;;;;;;14.85;11.20;;;;;;;27.27;32.43;99265.84;1697698;83;25650;-49
2023/04/13 09:17:29;;;;;;;13.72;11.38;;;;;;;27.30;32.99;99261.45;1719987;83;25477;-49
2023/04/13 09:19:56;;;;;;;14.45;11.03;;;;;;;27.62;32.01;99261.72;1719971;82;27460;-50
2023/04/13 09:22:24;;;;;;;14.43;11.90;;;;;;;27.52;31.85;99264.26;1719848;82;25687;-51
2023/04/13 09:24:51;;;;;;;14.03;12.55;;;;;;;26.57;30.69;99260.14;1720155;83;25439;-50
2023/04/13 09:27:26;;;;;;;14.53;11.63;;;;;;;26.02;31.46;99260.81;1719939;82;26138;-49
2023/04/13 09:29:55;;;;;;;17.42;12.65;;;;;;;25.77;32.03;99258.70;1719570;83;25636;-50
2023/04/13 09:32:27;;;;;;;15.32;12.35;;;;;;;25.76;32.93;99254.37;1719970;82;27462;-50
2023/04/13 09:35:04;;;;;;;15.78;11.90;;;;;;;26.24;32.71;99259.58;1719839;82;25557;-49
2023/04/13 09:37:32;;;;;;;14.80;11.38;;;;;;;26.49;32.39;99245.55;1697606;83;25571;-49
2023/04/13 09:40:17;;;;;;;14.40;11.55;;;;;;;27.00;32.90;99253.87;1719898;82;25564;-52
2023/04/13 09:43:06;;;;;;;13.40;10.80;;;;;;;26.91;30.83;99262.10;1719986;83;25553;-49
2023/04/13 09:45:44;;;;;;;12.30;10.82;;;;;;;26.31;30.88;99251.66;1719803;83;27606;-49
2023/04/13 09:48:21;;;;;;;15.20;11.57;;;;;;;26.25;30.61;99250.80;1725396;80;25402;-49
2023/04/13 09:51:01;;;;;;;13.30;11.55;;;;;;;25.95;31.23;99246.55;1753759;81;25577;-51
2023/04/13 09:53:46;;;;;;;13.03;11.22;;;;;;;25.46;31.36;99251.60;1753681;80;25574;-53
2023/04/13 09:56:12;;;;;;;12.65;10.43;;;;;;;25.06;31.55;99246.25;1753778;81;25509;-50
2023/04/13 09:58:46;;;;;;;14.65;11.20;;;;;;;24.98;32.82;99247.05;1753974;81;27474;-49
2023/04/13 10:01:15;;;;;;;12.95;11.18;;;;;;;25.47;32.46;99253.17;1753848;81;25539;-50
2023/04/13 10:03:44;;;;;;;13.25;11.43;;;;;;;25.35;31.21;99251.09;1753846;81;25307;-50
2023/04/13 10:06:13;;;;;;;12.85;11.28;;;;;;;25.01;31.33;99241.86;1754026;81;34746;-49
2023/04/13 10:08:45;;;;;;;12.65;11.15;;;;;;;25.01;31.45;99250.92;1741123;81;25557;-50
2023/04/13 10:11:14;;;;;;;13.55;11.33;;;;;;;24.63;31.83;99247.29;1740935;81;27583;-49
2023/04/13 10:13:56;;;;;;;14.45;11.90;;;;;;;24.30;32.35;99249.20;1753832;81;25518;-50
2023/04/13 10:16:50;;;;;;;12.60;10.68;;;;;;;24.08;32.80;99248.27;1753739;81;25425;-50
2023/04/13 10:19:22;;;;;;;11.93;10.68;;;;;;;24.39;31.88;99252.15;1753987;81;25619;-50
2023/04/13 10:21:52;;;;;;;15.35;10.45;;;;;;;24.55;31.66;99257.75;1753995;81;25626;-51
2023/04/13 10:24:22;;;;;;;12.07;10.00;;;;;;;24.76;32.12;99255.08;1753901;81;27509;-50
2023/04/13 10:26:54;;;;;;;13.38;10.20;;;;;;;25.05;31.24;99258.55;1753787;81;25587;-49
2023/04/13 10:29:33;;;;;;;14.83;10.28;;;;;;;24.94;31.32;99260.20;1753951;81;25611;-48
2023/04/13 10:32:02;;;;;;;;;;;;;;;24.96;31.61;99271.61;1756686;81;25657;-50
2023/04/13 10:34:33;;;;;;;13.55;10.50;;;;;;;25.03;31.25;99268.48;1754258;81;25402;-48
2023/04/13 10:37:05;;;;;;;13.55;9.80;;;;;;;25.38;31.65;99267.45;1753915;81;27460;-48
2023/04/13 10:39:35;;;;;;;13.15;10.13;;;;;;;25.76;31.12;99262.68;1753980;81;25527;-48
2023/04/13 10:42:08;;;;;;;11.80;10.15;;;;;;;25.33;30.45;99270.90;1753988;81;25469;-49
2023/04/13 10:44:51;;;;;;;12.58;10.35;;;;;;;24.48;30.00;99273.67;1753901;81;25604;-50
2023/04/13 10:47:20;;;;;;;14.03;10.80;;;;;;;23.26;30.80;99271.27;1754027;81;25563;-49
2023/04/13 10:49:51;;;;;;;14.45;11.57;;;;;;;22.46;32.25;99273.62;1753859;81;27465;-48
2023/04/13 10:52:17;;;;;;;13.48;11.12;;;;;;;22.31;33.14;99275.80;1753769;81;25375;-48
2023/04/13 10:54:44;;;;;;;13.95;11.45;;;;;;;22.58;33.56;99275.83;1753794;81;25366;-48
2023/04/13 10:57:12;;;;;;;13.70;11.10;;;;;;;22.65;33.39;99271.59;1753803;81;25540;-48
2023/04/13 10:59:52;;;;;;;13.10;11.12;;;;;;;22.27;33.30;99277.20;1754061;81;25547;-48
2023/04/13 11:02:17;;;;;;;17.12;11.10;;;;;;;21.86;33.48;99264.29;1753283;81;27725;-48
2023/04/13 11:04:47;;;;;;;11.83;10.60;;;;;;;21.60;33.95;99267.14;1741186;81;25636;-51
2023/04/13 11:07:18;;;;;;;12.95;10.15;;;;;;;21.21;34.28;99265.50;1753971;81;25182;-48
2023/04/13 11:09:46;;;;;;;12.82;10.15;;;;;;;21.66;35.23;99263.34;1753841;81;25540;-47
2023/04/13 11:12:15;;;;;;;13.85;9.85;;;;;;;22.31;35.30;99260.66;1740848;81;25635;-49
2023/04/13 11:14:50;;;;;;;12.80;9.63;;;;;;;22.91;34.36;99257.59;1741252;81;27506;-47
2023/04/13 11:17:20;;;;;;;10.98;9.78;;;;;;;23.04;33.70;99258.41;1753851;81;25625;-51
2023/04/13 11:19:54;;;;;;;12.55;9.40;;;;;;;23.15;33.65;99254.12;1740924;81;25573;-50
2023/04/13 11:22:27;;;;;;;11.35;9.78;;;;;;;23.51;33.28;99254.26;1753922;81;25523;-48
2023/04/13 11:24:57;;;;;;;10.50;9.38;;;;;;;23.91;33.37;99252.17;1753938;81;25606;-49
2023/04/13 11:27:26;;;;;;;12.37;9.68;;;;;;;24.09;32.22;99258.09;1753128;81;27682;-50
2023/04/13 11:30:05;;;;;;;11.93;9.80;;;;;;;24.04;31.70;99253.06;1754079;81;25385;-49
2023/04/13 11:32:35;;;;;;;10.85;9.28;;;;;;;23.75;31.76;99252.83;1753901;81;25517;-50
2023/04/13 11:35:17;;;;;;;11.75;8.78;;;;;;;23.26;31.61;99258.86;1753926;81;26011;-49
2023/04/13 11:37:51;;;;;;;9.45;8.55;;;;;;;22.71;31.51;99260.29;1752901;80;25552;-49
2023/04/13 11:40:24;;;;;;;10.63;9.23;;;;;;;22.35;32.19;99256.64;1753970;81;27515;-50
2023/04/13 11:42:55;;;;;;;11.33;9.35;;;;;;;22.09;32.46;99254.61;1753867;81;25560;-50
2023/04/13 11:45:26;;;;;;;9.90;8.75;;;;;;;21.74;32.67;99251.06;1753251;81;25338;-50
2023/04/13 11:47:56;;;;;;;74.65;61.48;;;;;;;21.23;32.68;99244.67;1753757;81;26028;-49
2023/04/13 11:50:25;;;;;;;13.75;12.23;;;;;;;20.77;33.19;99252.70;1772200;80;25184;-50
2023/04/13 11:52:55;;;;;;;13.05;10.30;;;;;;;20.51;33.91;99254.00;1775328;80;27518;-53
2023/04/13 11:55:25;;;;;;;13.32;9.13;;;;;;;20.97;35.52;99249.41;1775175;80;25788;-50
2023/04/13 11:57:55;;;;;;;11.28;9.48;;;;;;;21.91;35.39;99246.55;1775294;80;25629;-51
2023/04/13 12:00:27;;;;;;;10.15;8.55;;;;;;;22.32;34.32;99246.47;1775243;80;26537;-50
2023/04/13 12:02:57;;;;;;;11.38;8.70;;;;;;;22.89;34.70;99242.69;1775293;80;25620;-51
2023/04/13 12:05:27;;;;;;;9.20;7.87;;;;;;;23.73;34.08;99244.20;1753161;80;27656;-51
2023/04/13 12:07:57;;;;;;;8.65;7.75;;;;;;;24.42;32.64;99238.86;1775203;80;25732;-50
2023/04/13 12:10:28;;;;;;;9.48;7.67;;;;;;;24.49;31.52;99237.31;1753399;80;25413;-50
2023/04/13 12:13:05;;;;;;;8.00;7.05;;;;;;;23.99;29.56;99248.05;1775270;80;25673;-52
2023/04/13 12:15:36;;;;;;;8.90;8.00;;;;;;;23.31;30.25;99241.83;1774124;80;25523;-50
2023/04/13 12:18:06;;;;;;;8.45;7.55;;;;;;;23.23;30.66;99250.81;1775285;80;27461;-49
2023/04/13 12:20:47;;;;;;;8.80;8.00;;;;;;;23.12;31.51;99242.73;1775072;80;25643;-48
2023/04/13 12:23:24;;;;;;;9.48;8.50;;;;;;;23.58;31.61;99245.07;1775309;80;25416;-51
2023/04/13 12:26:04;;;;;;;11.00;8.25;;;;;;;23.52;31.21;99237.12;1775218;80;25504;-50
2023/04/13 12:28:34;;;;;;;9.10;8.05;;;;;;;23.37;31.61;99233.22;1775165;80;25588;-48
2023/04/13 12:31:06;;;;;;;9.35;7.62;;;;;;;23.72;31.94;99231.02;1775300;80;27523;-50
2023/04/13 12:33:36;;;;;;;11.97;7.83;;;;;;;24.18;32.00;99226.55;1775168;80;25543;-48
2023/04/13 12:36:05;;;;;;;10.23;7.42;;;;;;;24.80;31.44;99227.34;1775242;80;25583;-48
2023/04/13 12:38:34;;;;;;;12.05;8.33;;;;;;;25.38;31.16;99231.47;1775207;80;25613;-49
2023/04/13 12:41:02;;;;;;;12.80;8.03;;;;;;;25.70;29.98;99233.37;1775497;80;25598;-52
2023/04/13 12:43:30;;;;;;;10.55;7.67;;;;;;;25.31;29.41;99232.44;1774807;80;27483;-51
2023/04/13 12:45:56;;;;;;;8.60;7.30;;;;;;;24.86;29.12;99231.74;1775284;80;27380;-51
2023/04/13 12:48:23;;;;;;;11.70;8.60;;;;;;;24.43;29.36;99232.91;1775164;80;25599;-49
2023/04/13 12:50:49;;;;;;;12.43;7.08;;;;;;;23.88;29.03;99232.31;1746406;80;26308;-50
2023/04/13 12:53:17;;;;;;;9.23;6.97;;;;;;;23.30;29.62;99240.25;1741567;82;25593;-53
2023/04/13 12:55:43;;;;;;;9.55;8.18;;;;;;;22.84;30.10;99237.05;1729648;82;27535;-51
2023/04/13 12:58:10;;;;;;;10.08;8.13;;;;;;;22.48;30.29;99231.30;1750721;82;25663;-54
2023/04/13 13:00:37;;;;;;;9.10;7.95;;;;;;;22.05;30.69;99238.13;1750746;82;25655;-51
2023/04/13 13:03:06;;;;;;;9.53;8.15;;;;;;;21.58;30.95;99236.51;1750786;82;25512;-52
2023/04/13 13:05:33;;;;;;;8.93;7.80;;;;;;;21.25;31.45;99229.92;1746074;82;25556;-51
2023/04/13 13:08:00;;;;;;;11.25;7.85;;;;;;;20.95;31.85;99238.05;1742014;82;27555;-51
2023/04/13 13:10:30;;;;;;;9.85;7.90;;;;;;;20.91;32.37;99229.83;1743083;82;25551;-52
2023/04/13 13:13:02;;;;;;;10.75;8.53;;;;;;;21.23;32.95;99230.13;1743874;81;25392;-52
2023/04/13 13:15:26;;;;;;;14.18;11.90;;;;;;;21.83;33.18;99231.50;1741154;81;25389;-50
2023/04/13 13:17:53;;;;;;;10.05;7.65;;;;;;;22.19;32.66;99226.16;1740746;82;25397;-53
2023/04/13 13:20:22;;;;;;;7.92;6.85;;;;;;;22.28;31.91;99233.94;1740607;82;28033;-53
2023/04/13 13:22:50;;;;;;;8.63;7.33;;;;;;;22.24;31.44;99226.30;1743355;82;26091;-52
2023/04/13 13:25:17;;;;;;;8.48;7.30;;;;;;;22.10;31.24;99227.24;1740702;82;25711;-52